sensor_id;sensor_type;location;lat;lon;timestamp;P1;durP1;ratioP1;P2;durP2;ratioP2
62788;SDS011;66401;42.016;21.454;2023-03-13T00:00:47;10.67;;;7.37;;
62788;SDS011;66401;42.016;21.454;2023-03-13T00:03:13;12.03;;;7.40;;
62788;SDS011;66401;42.016;21.454;2023-03-13T00:05:39;10.97;;;6.80;;
62788;SDS011;66401;42.016;21.454;2023-03-13T00:08:04;10.87;;;6.43;;
62788;SDS011;66401;42.016;21.454;2023-03-13T00:10:30;13.97;;;6.17;;
62788;SDS011;66401;42.016;21.454;2023-03-13T00:12:55;10.57;;;5.50;;
62788;SDS011;66401;42.016;21.454;2023-03-13T00:15:21;8.13;;;6.00;;
62788;SDS011;66401;42.016;21.454;2023-03-13T00:17:47;12.37;;;7.10;;
62788;SDS011;66401;42.016;21.454;2023-03-13T00:20:12;12.57;;;6.83;;
62788;SDS011;66401;42.016;21.454;2023-03-13T00:22:38;12.20;;;6.70;;
62788;SDS011;66401;42.016;21.454;2023-03-13T00:25:03;8.00;;;5.40;;
62788;SDS011;66401;42.016;21.454;2023-03-13T00:27:32;6.87;;;5.57;;
62788;SDS011;66401;42.016;21.454;2023-03-13T00:29:58;10.67;;;5.20;;
62788;SDS011;66401;42.016;21.454;2023-03-13T00:32:24;7.63;;;5.87;;
62788;SDS011;66401;42.016;21.454;2023-03-13T00:34:49;9.53;;;5.80;;
62788;SDS011;66401;42.016;21.454;2023-03-13T00:37:15;8.43;;;6.37;;
62788;SDS011;66401;42.016;21.454;2023-03-13T00:39:40;9.10;;;6.17;;
62788;SDS011;66401;42.016;21.454;2023-03-13T00:42:06;12.00;;;6.53;;
62788;SDS011;66401;42.016;21.454;2023-03-13T00:44:31;9.73;;;6.43;;
62788;SDS011;66401;42.016;21.454;2023-03-13T00:46:57;12.87;;;7.27;;
62788;SDS011;66401;42.016;21.454;2023-03-13T00:49:22;12.00;;;7.10;;
62788;SDS011;66401;42.016;21.454;2023-03-13T00:51:48;16.13;;;7.60;;
62788;SDS011;66401;42.016;21.454;2023-03-13T00:54:13;13.67;;;7.10;;
62788;SDS011;66401;42.016;21.454;2023-03-13T00:56:39;12.70;;;6.47;;
62788;SDS011;66401;42.016;21.454;2023-03-13T00:59:04;11.00;;;6.90;;
62788;SDS011;66401;42.016;21.454;2023-03-13T01:01:31;9.80;;;6.53;;
62788;SDS011;66401;42.016;21.454;2023-03-13T01:03:59;8.67;;;6.17;;
62788;SDS011;66401;42.016;21.454;2023-03-13T01:06:27;8.23;;;6.03;;
62788;SDS011;66401;42.016;21.454;2023-03-13T01:08:54;9.70;;;6.10;;
62788;SDS011;66401;42.016;21.454;2023-03-13T01:11:27;9.53;;;5.50;;
62788;SDS011;66401;42.016;21.454;2023-03-13T01:13:56;9.47;;;6.03;;
62788;SDS011;66401;42.016;21.454;2023-03-13T01:16:24;10.07;;;5.23;;
62788;SDS011;66401;42.016;21.454;2023-03-13T01:18:51;8.00;;;5.83;;
62788;SDS011;66401;42.016;21.454;2023-03-13T01:21:19;8.30;;;5.00;;
62788;SDS011;66401;42.016;21.454;2023-03-13T01:23:46;6.57;;;5.33;;
62788;SDS011;66401;42.016;21.454;2023-03-13T01:26:12;6.67;;;5.13;;
62788;SDS011;66401;42.016;21.454;2023-03-13T01:28:38;11.50;;;7.40;;
62788;SDS011;66401;42.016;21.454;2023-03-13T01:34:01;11.27;;;7.17;;
62788;SDS011;66401;42.016;21.454;2023-03-13T01:36:28;10.77;;;6.47;;
62788;SDS011;66401;42.016;21.454;2023-03-13T01:38:55;9.47;;;6.10;;
62788;SDS011;66401;42.016;21.454;2023-03-13T01:41:22;10.10;;;6.57;;
62788;SDS011;66401;42.016;21.454;2023-03-13T01:43:48;10.63;;;6.80;;
62788;SDS011;66401;42.016;21.454;2023-03-13T01:48:56;13.20;;;7.27;;
62788;SDS011;66401;42.016;21.454;2023-03-13T01:51:39;11.57;;;7.50;;
62788;SDS011;66401;42.016;21.454;2023-03-13T01:54:15;11.03;;;7.50;;
62788;SDS011;66401;42.016;21.454;2023-03-13T01:56:53;12.50;;;7.23;;
62788;SDS011;66401;42.016;21.454;2023-03-13T01:59:22;10.47;;;7.37;;
62788;SDS011;66401;42.016;21.454;2023-03-13T02:01:55;14.53;;;7.87;;
62788;SDS011;66401;42.016;21.454;2023-03-13T02:04:23;11.90;;;8.03;;
62788;SDS011;66401;42.016;21.454;2023-03-13T02:06:52;12.77;;;7.77;;
62788;SDS011;66401;42.016;21.454;2023-03-13T02:09:23;13.20;;;7.40;;
62788;SDS011;66401;42.016;21.454;2023-03-13T02:14:22;10.90;;;6.80;;
62788;SDS011;66401;42.016;21.454;2023-03-13T02:16:51;13.20;;;7.00;;
62788;SDS011;66401;42.016;21.454;2023-03-13T02:19:19;15.27;;;7.43;;
62788;SDS011;66401;42.016;21.454;2023-03-13T02:21:59;8.23;;;6.03;;
62788;SDS011;66401;42.016;21.454;2023-03-13T02:27:25;6.83;;;5.97;;
62788;SDS011;66401;42.016;21.454;2023-03-13T02:29:50;8.47;;;6.07;;
62788;SDS011;66401;42.016;21.454;2023-03-13T02:32:17;10.00;;;5.87;;
62788;SDS011;66401;42.016;21.454;2023-03-13T02:34:43;12.40;;;6.70;;
62788;SDS011;66401;42.016;21.454;2023-03-13T02:37:11;6.90;;;6.10;;
62788;SDS011;66401;42.016;21.454;2023-03-13T02:39:40;10.90;;;6.07;;
62788;SDS011;66401;42.016;21.454;2023-03-13T02:42:09;12.50;;;6.87;;
62788;SDS011;66401;42.016;21.454;2023-03-13T02:44:38;7.30;;;6.07;;
62788;SDS011;66401;42.016;21.454;2023-03-13T02:47:04;14.03;;;6.97;;
62788;SDS011;66401;42.016;21.454;2023-03-13T02:49:30;8.93;;;6.07;;
62788;SDS011;66401;42.016;21.454;2023-03-13T02:52:08;11.40;;;6.57;;
62788;SDS011;66401;42.016;21.454;2023-03-13T02:54:44;12.00;;;6.13;;
62788;SDS011;66401;42.016;21.454;2023-03-13T02:57:12;14.37;;;6.47;;
62788;SDS011;66401;42.016;21.454;2023-03-13T02:59:38;10.63;;;6.93;;
62788;SDS011;66401;42.016;21.454;2023-03-13T03:02:03;17.33;;;7.37;;
62788;SDS011;66401;42.016;21.454;2023-03-13T03:04:29;12.27;;;6.93;;
62788;SDS011;66401;42.016;21.454;2023-03-13T03:06:54;11.30;;;7.57;;
62788;SDS011;66401;42.016;21.454;2023-03-13T03:09:20;11.67;;;6.83;;
62788;SDS011;66401;42.016;21.454;2023-03-13T03:11:47;10.53;;;5.97;;
62788;SDS011;66401;42.016;21.454;2023-03-13T03:14:13;11.27;;;6.53;;
62788;SDS011;66401;42.016;21.454;2023-03-13T03:16:38;14.90;;;7.30;;
62788;SDS011;66401;42.016;21.454;2023-03-13T03:19:04;12.67;;;7.10;;
62788;SDS011;66401;42.016;21.454;2023-03-13T03:21:33;8.53;;;6.23;;
62788;SDS011;66401;42.016;21.454;2023-03-13T03:23:59;11.63;;;7.27;;
62788;SDS011;66401;42.016;21.454;2023-03-13T03:26:25;10.70;;;6.23;;
62788;SDS011;66401;42.016;21.454;2023-03-13T03:28:51;9.30;;;6.27;;
62788;SDS011;66401;42.016;21.454;2023-03-13T03:31:17;10.23;;;6.77;;
62788;SDS011;66401;42.016;21.454;2023-03-13T03:33:43;7.33;;;5.63;;
62788;SDS011;66401;42.016;21.454;2023-03-13T03:36:11;5.97;;;4.73;;
62788;SDS011;66401;42.016;21.454;2023-03-13T03:38:38;8.47;;;5.13;;
62788;SDS011;66401;42.016;21.454;2023-03-13T03:41:06;9.87;;;5.00;;
62788;SDS011;66401;42.016;21.454;2023-03-13T03:43:32;9.70;;;5.17;;
62788;SDS011;66401;42.016;21.454;2023-03-13T03:45:58;9.70;;;5.37;;
62788;SDS011;66401;42.016;21.454;2023-03-13T03:48:24;8.50;;;5.00;;
62788;SDS011;66401;42.016;21.454;2023-03-13T03:50:49;7.70;;;5.23;;
62788;SDS011;66401;42.016;21.454;2023-03-13T03:53:15;9.27;;;5.20;;
62788;SDS011;66401;42.016;21.454;2023-03-13T03:55:41;6.77;;;4.77;;
62788;SDS011;66401;42.016;21.454;2023-03-13T03:58:06;14.27;;;6.53;;
62788;SDS011;66401;42.016;21.454;2023-03-13T04:00:32;12.77;;;6.17;;
62788;SDS011;66401;42.016;21.454;2023-03-13T04:02:57;10.33;;;5.97;;
62788;SDS011;66401;42.016;21.454;2023-03-13T04:05:23;8.00;;;5.67;;
62788;SDS011;66401;42.016;21.454;2023-03-13T04:07:50;9.50;;;6.00;;
62788;SDS011;66401;42.016;21.454;2023-03-13T04:10:16;7.47;;;5.30;;
62788;SDS011;66401;42.016;21.454;2023-03-13T04:12:41;9.80;;;5.27;;
62788;SDS011;66401;42.016;21.454;2023-03-13T04:15:07;9.93;;;6.23;;
62788;SDS011;66401;42.016;21.454;2023-03-13T04:17:33;8.63;;;5.83;;
62788;SDS011;66401;42.016;21.454;2023-03-13T04:19:58;8.37;;;5.90;;
62788;SDS011;66401;42.016;21.454;2023-03-13T04:22:24;5.40;;;4.90;;
62788;SDS011;66401;42.016;21.454;2023-03-13T04:24:49;7.47;;;4.77;;
62788;SDS011;66401;42.016;21.454;2023-03-13T04:27:15;7.60;;;4.97;;
62788;SDS011;66401;42.016;21.454;2023-03-13T04:29:41;6.40;;;5.40;;
62788;SDS011;66401;42.016;21.454;2023-03-13T04:32:06;7.23;;;5.10;;
62788;SDS011;66401;42.016;21.454;2023-03-13T04:34:32;7.53;;;4.83;;
62788;SDS011;66401;42.016;21.454;2023-03-13T04:36:58;8.57;;;5.03;;
62788;SDS011;66401;42.016;21.454;2023-03-13T04:39:24;6.47;;;5.40;;
62788;SDS011;66401;42.016;21.454;2023-03-13T04:41:52;7.77;;;5.53;;
62788;SDS011;66401;42.016;21.454;2023-03-13T04:44:19;7.17;;;5.37;;
62788;SDS011;66401;42.016;21.454;2023-03-13T04:46:46;7.87;;;5.17;;
62788;SDS011;66401;42.016;21.454;2023-03-13T04:49:12;7.67;;;5.83;;
62788;SDS011;66401;42.016;21.454;2023-03-13T04:51:39;7.23;;;4.87;;
62788;SDS011;66401;42.016;21.454;2023-03-13T04:54:05;9.63;;;5.77;;
62788;SDS011;66401;42.016;21.454;2023-03-13T04:56:31;10.80;;;5.60;;
62788;SDS011;66401;42.016;21.454;2023-03-13T04:58:56;7.00;;;4.70;;
62788;SDS011;66401;42.016;21.454;2023-03-13T05:01:22;8.93;;;5.30;;
62788;SDS011;66401;42.016;21.454;2023-03-13T05:03:47;7.37;;;5.20;;
62788;SDS011;66401;42.016;21.454;2023-03-13T05:06:13;7.57;;;5.13;;
62788;SDS011;66401;42.016;21.454;2023-03-13T05:08:38;7.50;;;4.90;;
62788;SDS011;66401;42.016;21.454;2023-03-13T05:11:04;7.50;;;5.07;;
62788;SDS011;66401;42.016;21.454;2023-03-13T05:13:30;7.53;;;4.90;;
62788;SDS011;66401;42.016;21.454;2023-03-13T05:15:55;9.23;;;5.53;;
62788;SDS011;66401;42.016;21.454;2023-03-13T05:18:21;6.63;;;4.93;;
62788;SDS011;66401;42.016;21.454;2023-03-13T05:20:47;9.93;;;6.23;;
62788;SDS011;66401;42.016;21.454;2023-03-13T05:23:12;8.17;;;5.57;;
62788;SDS011;66401;42.016;21.454;2023-03-13T05:25:40;8.50;;;5.83;;
62788;SDS011;66401;42.016;21.454;2023-03-13T05:28:05;10.87;;;5.90;;
62788;SDS011;66401;42.016;21.454;2023-03-13T05:30:31;8.60;;;5.97;;
62788;SDS011;66401;42.016;21.454;2023-03-13T05:32:56;10.37;;;6.30;;
62788;SDS011;66401;42.016;21.454;2023-03-13T05:35:22;9.03;;;6.63;;
62788;SDS011;66401;42.016;21.454;2023-03-13T05:37:47;10.20;;;6.97;;
62788;SDS011;66401;42.016;21.454;2023-03-13T05:40:13;10.53;;;6.57;;
62788;SDS011;66401;42.016;21.454;2023-03-13T05:42:39;12.23;;;5.97;;
62788;SDS011;66401;42.016;21.454;2023-03-13T05:45:05;9.43;;;5.83;;
62788;SDS011;66401;42.016;21.454;2023-03-13T05:47:32;13.83;;;6.90;;
62788;SDS011;66401;42.016;21.454;2023-03-13T05:49:58;9.30;;;6.30;;
62788;SDS011;66401;42.016;21.454;2023-03-13T05:52:23;9.23;;;5.47;;
62788;SDS011;66401;42.016;21.454;2023-03-13T05:54:49;7.60;;;6.13;;
62788;SDS011;66401;42.016;21.454;2023-03-13T05:57:14;8.67;;;5.57;;
62788;SDS011;66401;42.016;21.454;2023-03-13T05:59:40;11.67;;;6.13;;
62788;SDS011;66401;42.016;21.454;2023-03-13T06:02:05;9.77;;;6.47;;
62788;SDS011;66401;42.016;21.454;2023-03-13T06:04:31;12.17;;;7.13;;
62788;SDS011;66401;42.016;21.454;2023-03-13T06:06:56;9.07;;;6.43;;
62788;SDS011;66401;42.016;21.454;2023-03-13T06:09:22;13.20;;;7.00;;
62788;SDS011;66401;42.016;21.454;2023-03-13T06:11:47;8.80;;;6.17;;
62788;SDS011;66401;42.016;21.454;2023-03-13T06:14:13;12.23;;;6.70;;
62788;SDS011;66401;42.016;21.454;2023-03-13T06:16:38;12.27;;;7.00;;
62788;SDS011;66401;42.016;21.454;2023-03-13T06:19:04;10.13;;;6.23;;
62788;SDS011;66401;42.016;21.454;2023-03-13T06:21:29;13.10;;;5.67;;
62788;SDS011;66401;42.016;21.454;2023-03-13T06:23:55;10.73;;;5.33;;
62788;SDS011;66401;42.016;21.454;2023-03-13T06:26:21;8.90;;;5.60;;
62788;SDS011;66401;42.016;21.454;2023-03-13T06:28:48;8.97;;;5.37;;
62788;SDS011;66401;42.016;21.454;2023-03-13T06:31:14;9.50;;;5.33;;
62788;SDS011;66401;42.016;21.454;2023-03-13T06:33:40;7.83;;;6.17;;
62788;SDS011;66401;42.016;21.454;2023-03-13T06:36:05;8.13;;;5.23;;
62788;SDS011;66401;42.016;21.454;2023-03-13T06:38:31;6.50;;;4.30;;
62788;SDS011;66401;42.016;21.454;2023-03-13T06:41:03;6.30;;;4.77;;
62788;SDS011;66401;42.016;21.454;2023-03-13T06:43:29;8.60;;;4.80;;
62788;SDS011;66401;42.016;21.454;2023-03-13T06:45:55;5.67;;;4.57;;
62788;SDS011;66401;42.016;21.454;2023-03-13T06:48:20;7.80;;;4.80;;
62788;SDS011;66401;42.016;21.454;2023-03-13T06:50:49;10.30;;;5.10;;
62788;SDS011;66401;42.016;21.454;2023-03-13T06:53:17;8.50;;;4.90;;
62788;SDS011;66401;42.016;21.454;2023-03-13T06:55:44;7.17;;;5.20;;
62788;SDS011;66401;42.016;21.454;2023-03-13T06:58:11;6.10;;;4.73;;
62788;SDS011;66401;42.016;21.454;2023-03-13T07:00:36;9.90;;;5.60;;
62788;SDS011;66401;42.016;21.454;2023-03-13T07:03:04;6.63;;;5.07;;
62788;SDS011;66401;42.016;21.454;2023-03-13T07:05:30;7.63;;;5.07;;
62788;SDS011;66401;42.016;21.454;2023-03-13T07:07:56;6.87;;;4.73;;
62788;SDS011;66401;42.016;21.454;2023-03-13T07:10:22;5.50;;;4.57;;
62788;SDS011;66401;42.016;21.454;2023-03-13T07:12:47;9.80;;;4.63;;
62788;SDS011;66401;42.016;21.454;2023-03-13T07:15:14;9.70;;;5.33;;
62788;SDS011;66401;42.016;21.454;2023-03-13T07:17:40;7.57;;;5.30;;
62788;SDS011;66401;42.016;21.454;2023-03-13T07:20:05;6.63;;;4.87;;
62788;SDS011;66401;42.016;21.454;2023-03-13T07:22:34;6.93;;;4.83;;
62788;SDS011;66401;42.016;21.454;2023-03-13T07:25:00;8.57;;;5.10;;
62788;SDS011;66401;42.016;21.454;2023-03-13T07:27:26;5.33;;;4.83;;
62788;SDS011;66401;42.016;21.454;2023-03-13T07:29:51;6.47;;;4.93;;
62788;SDS011;66401;42.016;21.454;2023-03-13T07:32:17;7.37;;;5.20;;
62788;SDS011;66401;42.016;21.454;2023-03-13T07:34:43;6.63;;;4.97;;
62788;SDS011;66401;42.016;21.454;2023-03-13T07:37:09;8.53;;;5.53;;
62788;SDS011;66401;42.016;21.454;2023-03-13T07:39:39;7.50;;;5.20;;
62788;SDS011;66401;42.016;21.454;2023-03-13T07:42:04;6.50;;;4.87;;
62788;SDS011;66401;42.016;21.454;2023-03-13T07:44:30;6.17;;;5.00;;
62788;SDS011;66401;42.016;21.454;2023-03-13T07:46:59;5.30;;;4.80;;
62788;SDS011;66401;42.016;21.454;2023-03-13T07:49:25;7.73;;;5.30;;
62788;SDS011;66401;42.016;21.454;2023-03-13T07:51:50;7.53;;;5.43;;
62788;SDS011;66401;42.016;21.454;2023-03-13T07:54:16;10.73;;;6.27;;
62788;SDS011;66401;42.016;21.454;2023-03-13T07:56:41;8.00;;;5.90;;
62788;SDS011;66401;42.016;21.454;2023-03-13T07:59:07;9.67;;;6.80;;
62788;SDS011;66401;42.016;21.454;2023-03-13T08:01:33;6.50;;;5.73;;
62788;SDS011;66401;42.016;21.454;2023-03-13T08:03:59;8.57;;;6.60;;
62788;SDS011;66401;42.016;21.454;2023-03-13T08:06:26;11.27;;;6.37;;
62788;SDS011;66401;42.016;21.454;2023-03-13T08:08:55;6.93;;;6.23;;
62788;SDS011;66401;42.016;21.454;2023-03-13T08:11:23;7.23;;;5.90;;
62788;SDS011;66401;42.016;21.454;2023-03-13T08:13:50;7.70;;;5.33;;
62788;SDS011;66401;42.016;21.454;2023-03-13T08:16:21;7.90;;;5.90;;
62788;SDS011;66401;42.016;21.454;2023-03-13T08:18:52;6.17;;;5.60;;
62788;SDS011;66401;42.016;21.454;2023-03-13T08:21:20;6.20;;;5.60;;
62788;SDS011;66401;42.016;21.454;2023-03-13T08:23:51;5.70;;;5.10;;
62788;SDS011;66401;42.016;21.454;2023-03-13T08:26:18;7.43;;;5.10;;
62788;SDS011;66401;42.016;21.454;2023-03-13T08:28:45;6.60;;;5.50;;
62788;SDS011;66401;42.016;21.454;2023-03-13T08:31:13;8.63;;;5.67;;
62788;SDS011;66401;42.016;21.454;2023-03-13T08:33:50;8.90;;;5.67;;
62788;SDS011;66401;42.016;21.454;2023-03-13T08:38:42;7.23;;;5.37;;
62788;SDS011;66401;42.016;21.454;2023-03-13T08:41:09;8.17;;;5.63;;
62788;SDS011;66401;42.016;21.454;2023-03-13T08:43:39;6.43;;;5.57;;
62788;SDS011;66401;42.016;21.454;2023-03-13T08:46:05;7.57;;;5.60;;
62788;SDS011;66401;42.016;21.454;2023-03-13T08:48:30;4.73;;;4.13;;
62788;SDS011;66401;42.016;21.454;2023-03-13T08:51:00;9.13;;;5.10;;
62788;SDS011;66401;42.016;21.454;2023-03-13T08:53:26;6.40;;;4.97;;
62788;SDS011;66401;42.016;21.454;2023-03-13T08:55:52;5.13;;;4.63;;
62788;SDS011;66401;42.016;21.454;2023-03-13T08:58:18;6.63;;;4.37;;
62788;SDS011;66401;42.016;21.454;2023-03-13T09:00:44;5.13;;;4.70;;
62788;SDS011;66401;42.016;21.454;2023-03-13T09:03:09;5.10;;;4.37;;
62788;SDS011;66401;42.016;21.454;2023-03-13T09:05:36;6.07;;;4.57;;
62788;SDS011;66401;42.016;21.454;2023-03-13T09:08:02;4.97;;;4.47;;
62788;SDS011;66401;42.016;21.454;2023-03-13T09:10:28;7.43;;;5.80;;
62788;SDS011;66401;42.016;21.454;2023-03-13T09:12:53;11.03;;;5.00;;
62788;SDS011;66401;42.016;21.454;2023-03-13T09:15:19;6.13;;;4.30;;
62788;SDS011;66401;42.016;21.454;2023-03-13T09:17:44;9.17;;;4.60;;
62788;SDS011;66401;42.016;21.454;2023-03-13T09:20:10;4.60;;;4.20;;
62788;SDS011;66401;42.016;21.454;2023-03-13T09:22:35;4.73;;;3.50;;
62788;SDS011;66401;42.016;21.454;2023-03-13T09:25:01;5.00;;;3.83;;
62788;SDS011;66401;42.016;21.454;2023-03-13T09:27:26;4.27;;;3.87;;
62788;SDS011;66401;42.016;21.454;2023-03-13T09:29:52;4.50;;;3.93;;
62788;SDS011;66401;42.016;21.454;2023-03-13T09:32:18;4.90;;;4.30;;
62788;SDS011;66401;42.016;21.454;2023-03-13T09:34:44;6.67;;;4.47;;
62788;SDS011;66401;42.016;21.454;2023-03-13T09:37:10;8.20;;;4.40;;
62788;SDS011;66401;42.016;21.454;2023-03-13T09:39:36;5.63;;;4.17;;
62788;SDS011;66401;42.016;21.454;2023-03-13T09:42:21;4.70;;;4.20;;
62788;SDS011;66401;42.016;21.454;2023-03-13T09:44:58;5.10;;;4.60;;
62788;SDS011;66401;42.016;21.454;2023-03-13T09:47:43;4.77;;;4.10;;
62788;SDS011;66401;42.016;21.454;2023-03-13T09:50:13;5.17;;;4.57;;
62788;SDS011;66401;42.016;21.454;2023-03-13T09:52:47;6.30;;;4.70;;
62788;SDS011;66401;42.016;21.454;2023-03-13T09:55:27;7.87;;;4.93;;
62788;SDS011;66401;42.016;21.454;2023-03-13T09:57:58;5.87;;;4.63;;
62788;SDS011;66401;42.016;21.454;2023-03-13T10:00:52;5.20;;;4.70;;
62788;SDS011;66401;42.016;21.454;2023-03-13T10:06:18;5.30;;;4.80;;
62788;SDS011;66401;42.016;21.454;2023-03-13T10:08:46;7.40;;;4.43;;
62788;SDS011;66401;42.016;21.454;2023-03-13T10:16:55;5.53;;;4.03;;
62788;SDS011;66401;42.016;21.454;2023-03-13T10:19:36;6.30;;;4.60;;
62788;SDS011;66401;42.016;21.454;2023-03-13T10:22:11;6.13;;;5.10;;
62788;SDS011;66401;42.016;21.454;2023-03-13T10:24:51;6.10;;;4.60;;
62788;SDS011;66401;42.016;21.454;2023-03-13T10:27:21;4.82;;;4.32;;
62788;SDS011;66401;42.016;21.454;2023-03-13T10:29:46;5.90;;;4.30;;
62788;SDS011;66401;42.016;21.454;2023-03-13T10:32:13;5.47;;;4.60;;
62788;SDS011;66401;42.016;21.454;2023-03-13T10:37:18;4.45;;;4.03;;
62788;SDS011;66401;42.016;21.454;2023-03-13T10:39:46;5.13;;;4.28;;
62788;SDS011;66401;42.016;21.454;2023-03-13T10:42:20;5.25;;;3.97;;
62788;SDS011;66401;42.016;21.454;2023-03-13T10:45:06;6.32;;;4.25;;
62788;SDS011;66401;42.016;21.454;2023-03-13T10:47:33;7.25;;;4.07;;
62788;SDS011;66401;42.016;21.454;2023-03-13T10:49:59;5.60;;;4.32;;
62788;SDS011;66401;42.016;21.454;2023-03-13T10:52:30;4.10;;;3.80;;
62788;SDS011;66401;42.016;21.454;2023-03-13T10:55:02;5.75;;;4.05;;
62788;SDS011;66401;42.016;21.454;2023-03-13T10:57:33;4.00;;;3.60;;
62788;SDS011;66401;42.016;21.454;2023-03-13T11:00:02;4.80;;;3.83;;
62788;SDS011;66401;42.016;21.454;2023-03-13T11:02:47;6.45;;;4.25;;
62788;SDS011;66401;42.016;21.454;2023-03-13T11:07:47;6.40;;;5.80;;
62788;SDS011;66401;42.016;21.454;2023-03-13T11:12:46;9.10;;;5.22;;
62788;SDS011;66401;42.016;21.454;2023-03-13T11:15:22;5.65;;;5.15;;
62788;SDS011;66401;42.016;21.454;2023-03-13T11:18:38;8.63;;;5.80;;
62788;SDS011;66401;42.016;21.454;2023-03-13T11:20:50;8.93;;;6.00;;
62788;SDS011;66401;42.016;21.454;2023-03-13T11:31:53;7.77;;;5.40;;
62788;SDS011;66401;42.016;21.454;2023-03-13T11:34:29;6.60;;;4.57;;
62788;SDS011;66401;42.016;21.454;2023-03-13T11:37:21;7.03;;;4.77;;
62788;SDS011;66401;42.016;21.454;2023-03-13T11:57:31;6.30;;;4.90;;
62788;SDS011;66401;42.016;21.454;2023-03-13T12:02:52;6.07;;;4.60;;
62788;SDS011;66401;42.016;21.454;2023-03-13T12:05:23;5.80;;;4.93;;
62788;SDS011;66401;42.016;21.454;2023-03-13T12:07:54;9.60;;;5.30;;
62788;SDS011;66401;42.016;21.454;2023-03-13T12:10:32;5.00;;;4.43;;
62788;SDS011;66401;42.016;21.454;2023-03-13T12:15:56;5.50;;;3.73;;
62788;SDS011;66401;42.016;21.454;2023-03-13T12:18:35;4.37;;;3.90;;
62788;SDS011;66401;42.016;21.454;2023-03-13T12:26:46;4.63;;;4.23;;
62788;SDS011;66401;42.016;21.454;2023-03-13T12:29:15;5.60;;;4.50;;
62788;SDS011;66401;42.016;21.454;2023-03-13T12:31:49;5.37;;;4.20;;
62788;SDS011;66401;42.016;21.454;2023-03-13T12:34:29;5.63;;;3.70;;
62788;SDS011;66401;42.016;21.454;2023-03-13T12:37:11;7.23;;;3.93;;
62788;SDS011;66401;42.016;21.454;2023-03-13T12:39:52;6.67;;;4.10;;
62788;SDS011;66401;42.016;21.454;2023-03-13T12:45:00;5.03;;;3.83;;
62788;SDS011;66401;42.016;21.454;2023-03-13T13:04:11;4.77;;;3.37;;
62788;SDS011;66401;42.016;21.454;2023-03-13T13:06:50;6.00;;;3.67;;
62788;SDS011;66401;42.016;21.454;2023-03-13T13:09:22;4.83;;;3.40;;
62788;SDS011;66401;42.016;21.454;2023-03-13T13:11:51;4.97;;;3.90;;
62788;SDS011;66401;42.016;21.454;2023-03-13T13:16:48;4.93;;;3.67;;
62788;SDS011;66401;42.016;21.454;2023-03-13T13:24:51;4.33;;;3.90;;
62788;SDS011;66401;42.016;21.454;2023-03-13T13:32:51;3.33;;;3.00;;
62788;SDS011;66401;42.016;21.454;2023-03-13T13:35:22;4.40;;;3.30;;
62788;SDS011;66401;42.016;21.454;2023-03-13T13:37:50;3.87;;;3.53;;
62788;SDS011;66401;42.016;21.454;2023-03-13T13:40:25;3.10;;;2.80;;
62788;SDS011;66401;42.016;21.454;2023-03-13T13:42:56;6.00;;;4.00;;
62788;SDS011;66401;42.016;21.454;2023-03-13T13:45:24;3.73;;;3.20;;
62788;SDS011;66401;42.016;21.454;2023-03-13T13:48:37;5.80;;;3.43;;
62788;SDS011;66401;42.016;21.454;2023-03-13T13:53:32;4.93;;;3.63;;
62788;SDS011;66401;42.016;21.454;2023-03-13T13:58:59;4.80;;;3.90;;
62788;SDS011;66401;42.016;21.454;2023-03-13T14:01:50;6.07;;;3.77;;
62788;SDS011;66401;42.016;21.454;2023-03-13T14:04:34;5.70;;;4.60;;
62788;SDS011;66401;42.016;21.454;2023-03-13T14:07:03;5.83;;;3.80;;
62788;SDS011;66401;42.016;21.454;2023-03-13T14:12:27;7.07;;;4.17;;
62788;SDS011;66401;42.016;21.454;2023-03-13T14:17:44;3.87;;;3.53;;
62788;SDS011;66401;42.016;21.454;2023-03-13T14:23:09;6.00;;;4.07;;
62788;SDS011;66401;42.016;21.454;2023-03-13T14:25:46;9.97;;;4.83;;
62788;SDS011;66401;42.016;21.454;2023-03-13T14:28:21;8.83;;;5.93;;
62788;SDS011;66401;42.016;21.454;2023-03-13T14:30:49;6.40;;;4.47;;
62788;SDS011;66401;42.016;21.454;2023-03-13T14:33:17;3.97;;;3.53;;
62788;SDS011;66401;42.016;21.454;2023-03-13T14:35:44;4.03;;;3.63;;
62788;SDS011;66401;42.016;21.454;2023-03-13T14:38:23;7.80;;;4.50;;
62788;SDS011;66401;42.016;21.454;2023-03-13T14:40:51;8.57;;;4.17;;
62788;SDS011;66401;42.016;21.454;2023-03-13T14:46:11;9.00;;;5.30;;
62788;SDS011;66401;42.016;21.454;2023-03-13T14:48:40;7.43;;;4.33;;
62788;SDS011;66401;42.016;21.454;2023-03-13T14:51:09;5.77;;;4.10;;
62788;SDS011;66401;42.016;21.454;2023-03-13T14:56:34;5.33;;;3.77;;
62788;SDS011;66401;42.016;21.454;2023-03-13T14:59:27;5.43;;;3.93;;
62788;SDS011;66401;42.016;21.454;2023-03-13T15:01:58;7.07;;;3.83;;
62788;SDS011;66401;42.016;21.454;2023-03-13T15:07:12;5.10;;;3.77;;
62788;SDS011;66401;42.016;21.454;2023-03-13T15:09:42;7.00;;;4.73;;
62788;SDS011;66401;42.016;21.454;2023-03-13T15:12:13;7.50;;;5.03;;
62788;SDS011;66401;42.016;21.454;2023-03-13T15:14:41;7.43;;;4.83;;
62788;SDS011;66401;42.016;21.454;2023-03-13T15:19:40;7.63;;;4.17;;
62788;SDS011;66401;42.016;21.454;2023-03-13T15:22:11;8.17;;;4.37;;
62788;SDS011;66401;42.016;21.454;2023-03-13T15:24:39;8.83;;;4.83;;
62788;SDS011;66401;42.016;21.454;2023-03-13T15:27:18;5.37;;;4.87;;
62788;SDS011;66401;42.016;21.454;2023-03-13T15:29:45;6.27;;;4.60;;
62788;SDS011;66401;42.016;21.454;2023-03-13T15:32:27;4.40;;;4.00;;
62788;SDS011;66401;42.016;21.454;2023-03-13T15:34:55;7.83;;;4.63;;
62788;SDS011;66401;42.016;21.454;2023-03-13T15:37:22;4.97;;;4.20;;
62788;SDS011;66401;42.016;21.454;2023-03-13T15:39:49;5.97;;;4.43;;
62788;SDS011;66401;42.016;21.454;2023-03-13T15:42:14;4.33;;;3.87;;
62788;SDS011;66401;42.016;21.454;2023-03-13T15:44:40;8.67;;;4.70;;
62788;SDS011;66401;42.016;21.454;2023-03-13T15:47:05;7.30;;;4.30;;
62788;SDS011;66401;42.016;21.454;2023-03-13T15:49:33;5.57;;;4.57;;
62788;SDS011;66401;42.016;21.454;2023-03-13T15:51:59;8.43;;;4.13;;
62788;SDS011;66401;42.016;21.454;2023-03-13T15:54:24;4.80;;;4.30;;
62788;SDS011;66401;42.016;21.454;2023-03-13T15:56:50;4.47;;;3.97;;
62788;SDS011;66401;42.016;21.454;2023-03-13T15:59:16;7.30;;;4.53;;
62788;SDS011;66401;42.016;21.454;2023-03-13T16:01:43;6.10;;;4.30;;
62788;SDS011;66401;42.016;21.454;2023-03-13T16:04:09;5.87;;;4.13;;
62788;SDS011;66401;42.016;21.454;2023-03-13T16:06:35;8.80;;;4.57;;
62788;SDS011;66401;42.016;21.454;2023-03-13T16:09:04;7.10;;;4.20;;
62788;SDS011;66401;42.016;21.454;2023-03-13T16:11:31;5.13;;;4.17;;
62788;SDS011;66401;42.016;21.454;2023-03-13T16:13:58;4.77;;;3.53;;
62788;SDS011;66401;42.016;21.454;2023-03-13T16:16:27;6.20;;;3.97;;
62788;SDS011;66401;42.016;21.454;2023-03-13T16:18:55;5.87;;;4.03;;
62788;SDS011;66401;42.016;21.454;2023-03-13T16:21:32;7.60;;;4.07;;
62788;SDS011;66401;42.016;21.454;2023-03-13T16:23:58;5.67;;;4.50;;
62788;SDS011;66401;42.016;21.454;2023-03-13T16:26:28;8.00;;;4.10;;
62788;SDS011;66401;42.016;21.454;2023-03-13T16:28:55;6.30;;;4.23;;
62788;SDS011;66401;42.016;21.454;2023-03-13T16:31:26;7.67;;;4.70;;
62788;SDS011;66401;42.016;21.454;2023-03-13T16:33:54;5.70;;;3.60;;
62788;SDS011;66401;42.016;21.454;2023-03-13T16:36:21;5.50;;;3.80;;
62788;SDS011;66401;42.016;21.454;2023-03-13T16:38:48;3.80;;;3.37;;
62788;SDS011;66401;42.016;21.454;2023-03-13T16:41:19;4.83;;;3.60;;
62788;SDS011;66401;42.016;21.454;2023-03-13T16:43:46;8.00;;;4.07;;